createdAt,value
2018-10-16T00:00:24.830Z,18.30
2018-10-16T00:01:24.803Z,18.40
2018-10-16T00:02:24.776Z,18.00
2018-10-16T00:03:24.746Z,16.50
2018-10-16T00:04:24.720Z,17.60
2018-10-16T00:05:24.691Z,17.60
2018-10-16T00:06:24.663Z,17.50
2018-10-16T00:07:24.634Z,17.70
2018-10-16T00:08:24.606Z,17.80
2018-10-16T00:09:24.578Z,18.10
2018-10-16T00:10:24.550Z,18.70
2018-10-16T00:11:24.520Z,19.30
2018-10-16T00:12:24.494Z,19.60
2018-10-16T00:13:24.466Z,17.50
2018-10-16T00:14:24.438Z,17.50
2018-10-16T00:15:24.410Z,17.90
2018-10-16T00:16:24.381Z,18.50
2018-10-16T00:17:24.375Z,16.90
2018-10-16T00:18:24.326Z,18.90
2018-10-16T00:19:24.299Z,18.60
2018-10-16T00:20:24.268Z,18.80
2018-10-16T00:21:24.239Z,18.80
2018-10-16T00:22:24.215Z,18.90
2018-10-16T00:23:24.185Z,19.30
2018-10-16T00:24:24.156Z,19.40
2018-10-16T00:25:24.128Z,19.20
2018-10-16T00:26:24.100Z,18.60
2018-10-16T00:27:24.071Z,19.40
2018-10-16T00:28:24.044Z,19.10
2018-10-16T00:29:24.016Z,18.80
2018-10-16T00:30:23.986Z,18.30
2018-10-16T00:31:23.958Z,18.10
2018-10-16T00:32:23.962Z,17.60
2018-10-16T00:33:23.901Z,17.10
2018-10-16T00:34:23.875Z,18.30
2018-10-16T00:35:23.845Z,18.30
2018-10-16T00:36:23.819Z,18.70
2018-10-16T00:37:23.788Z,18.80
2018-10-16T00:38:23.761Z,19.10
2018-10-16T00:39:23.731Z,18.50
2018-10-16T00:40:23.703Z,17.50
2018-10-16T00:41:23.675Z,18.10
2018-10-16T00:42:23.648Z,18.40
2018-10-16T00:43:23.619Z,17.40
2018-10-16T00:44:23.590Z,17.30
2018-10-16T00:45:23.562Z,17.50
2018-10-16T00:46:23.533Z,16.20
2018-10-16T00:47:23.505Z,16.70
2018-10-16T00:48:23.476Z,17.40
2018-10-16T00:49:23.448Z,17.40
2018-10-16T00:50:23.420Z,17.50
2018-10-16T00:51:23.392Z,15.80
2018-10-16T00:52:23.363Z,16.00
2018-10-16T00:53:23.334Z,16.70
2018-10-16T00:54:23.307Z,16.70
2018-10-16T00:55:23.277Z,17.30
2018-10-16T00:56:23.248Z,16.80
2018-10-16T00:57:23.246Z,15.80
2018-10-16T00:58:23.191Z,15.70
2018-10-16T00:59:23.162Z,17.20
2018-10-16T01:00:23.136Z,15.70
2018-10-16T01:01:23.106Z,17.30
2018-10-16T01:02:23.078Z,17.30
2018-10-16T01:03:23.050Z,16.60
2018-10-16T01:04:23.020Z,16.40
2018-10-16T01:05:22.995Z,15.70
2018-10-16T01:06:22.965Z,17.20
2018-10-16T01:07:22.934Z,17.30
2018-10-16T01:08:22.909Z,17.30
2018-10-16T01:09:22.876Z,17.30
2018-10-16T01:10:22.849Z,18.50
2018-10-16T01:11:22.822Z,17.40
2018-10-16T01:12:22.792Z,16.60
2018-10-16T01:13:22.764Z,17.30
2018-10-16T01:14:22.736Z,16.90
2018-10-16T01:15:22.707Z,16.40
2018-10-16T01:16:22.678Z,17.70
2018-10-16T01:17:22.650Z,17.30
2018-10-16T01:18:22.623Z,17.70
2018-10-16T01:19:22.592Z,17.30
2018-10-16T01:20:22.569Z,16.70
2018-10-16T01:21:22.537Z,17.40
2018-10-16T01:22:22.507Z,18.10
2018-10-16T01:23:22.477Z,18.70
2018-10-16T01:24:22.450Z,17.80
2018-10-16T01:25:22.422Z,17.90
2018-10-16T01:26:22.393Z,16.90
2018-10-16T01:27:22.363Z,17.50
2018-10-16T01:28:22.336Z,17.50
2018-10-16T01:29:22.309Z,16.30
2018-10-16T01:30:22.279Z,16.90
2018-10-16T01:31:22.250Z,15.90
2018-10-16T01:32:22.222Z,16.70
2018-10-16T01:33:22.193Z,17.00
2018-10-16T01:34:22.164Z,17.10
2018-10-16T01:35:22.136Z,17.70
2018-10-16T01:36:22.106Z,17.50
2018-10-16T01:37:22.077Z,17.10
2018-10-16T01:38:22.052Z,17.50
2018-10-16T01:39:22.019Z,17.00
2018-10-16T01:40:21.991Z,17.20
2018-10-16T01:41:21.963Z,17.80
2018-10-16T01:42:21.933Z,17.40
2018-10-16T01:43:21.905Z,18.30
2018-10-16T01:44:21.877Z,17.80
2018-10-16T01:45:21.850Z,16.80
2018-10-16T01:46:21.819Z,16.70
2018-10-16T01:47:21.792Z,16.60
2018-10-16T01:48:21.763Z,17.40
2018-10-16T01:49:21.733Z,17.80
2018-10-16T01:50:21.706Z,15.90
2018-10-16T01:51:21.678Z,16.90
2018-10-16T01:52:21.649Z,16.20
2018-10-16T01:53:21.619Z,15.70
2018-10-16T01:54:21.595Z,16.30
2018-10-16T01:55:21.563Z,15.40
2018-10-16T01:56:21.535Z,16.10
2018-10-16T01:57:21.506Z,16.40
2018-10-16T01:58:21.476Z,17.80
2018-10-16T01:59:21.446Z,17.70
2018-10-16T02:00:21.420Z,18.50
2018-10-16T02:01:21.389Z,17.80
2018-10-16T02:02:21.361Z,17.60
2018-10-16T02:03:21.331Z,17.50
2018-10-16T02:04:21.305Z,17.10
2018-10-16T02:05:21.277Z,17.90
2018-10-16T02:06:21.246Z,18.40
2018-10-16T02:07:21.216Z,19.00
2018-10-16T02:08:21.189Z,16.60
2018-10-16T02:09:21.159Z,17.30
2018-10-16T02:10:21.131Z,16.30
2018-10-16T02:11:21.101Z,17.60
2018-10-16T02:12:21.073Z,16.80
2018-10-16T02:13:21.044Z,16.30
2018-10-16T02:14:21.016Z,17.30
2018-10-16T02:15:20.985Z,16.50
2018-10-16T02:16:20.958Z,16.60
2018-10-16T02:17:20.929Z,16.60
2018-10-16T02:18:20.901Z,17.70
2018-10-16T02:19:20.871Z,17.20
2018-10-16T02:20:20.843Z,17.70
2018-10-16T02:21:20.815Z,17.50
2018-10-16T02:22:20.787Z,17.80
2018-10-16T02:23:20.755Z,17.80
2018-10-16T02:24:20.728Z,17.10
2018-10-16T02:25:20.698Z,17.20
2018-10-16T02:26:20.669Z,17.50
2018-10-16T02:27:20.640Z,18.50
2018-10-16T02:28:20.611Z,18.90
2018-10-16T02:29:20.583Z,17.70
2018-10-16T02:30:20.556Z,18.20
2018-10-16T02:31:20.525Z,17.80
2018-10-16T02:32:20.499Z,17.50
2018-10-16T02:33:20.469Z,18.20
2018-10-16T02:34:20.442Z,18.30
2018-10-16T02:35:20.410Z,18.70
2018-10-16T02:36:20.380Z,17.30
2018-10-16T02:37:20.353Z,17.00
2018-10-16T02:38:20.324Z,16.80
2018-10-16T02:39:20.294Z,16.90
2018-10-16T02:40:20.266Z,17.20
2018-10-16T02:41:20.240Z,17.70
2018-10-16T02:42:20.207Z,18.40
2018-10-16T02:43:20.179Z,18.10
2018-10-16T02:44:20.149Z,16.80
2018-10-16T02:45:20.122Z,17.50
2018-10-16T02:46:20.093Z,17.70
2018-10-16T02:47:20.063Z,18.50
2018-10-16T02:48:20.034Z,18.20
2018-10-16T02:49:20.007Z,19.20
2018-10-16T02:50:19.978Z,18.90
2018-10-16T02:51:19.948Z,20.40
2018-10-16T02:52:19.917Z,19.00
2018-10-16T02:53:19.890Z,18.40
2018-10-16T02:54:19.866Z,18.90
2018-10-16T02:55:19.832Z,19.80
2018-10-16T02:56:19.804Z,19.80
2018-10-16T02:57:19.775Z,19.70
2018-10-16T02:58:19.745Z,20.20
2018-10-16T02:59:19.715Z,19.50
2018-10-16T03:00:19.706Z,19.80
2018-10-16T03:01:19.658Z,19.30
2018-10-16T03:02:19.629Z,20.00
2018-10-16T03:03:19.600Z,20.40
2018-10-16T03:04:19.571Z,20.50
2018-10-16T03:05:19.542Z,20.10
2018-10-16T03:06:19.514Z,19.30
2018-10-16T03:07:19.485Z,19.30
2018-10-16T03:08:19.456Z,17.90
2018-10-16T03:09:19.425Z,17.70
2018-10-16T03:10:19.397Z,18.90
2018-10-16T03:11:19.368Z,19.40
2018-10-16T03:12:19.339Z,19.50
2018-10-16T03:13:19.313Z,18.10
2018-10-16T03:14:19.280Z,18.20
2018-10-16T03:15:19.258Z,18.70
2018-10-16T03:16:19.223Z,18.30
2018-10-16T03:17:19.192Z,17.80
2018-10-16T03:18:19.165Z,18.30
2018-10-16T03:19:19.136Z,19.50
2018-10-16T03:20:19.167Z,19.00
2018-10-16T03:21:19.081Z,17.10
2018-10-16T03:22:19.052Z,17.40
2018-10-16T03:23:19.023Z,18.60
2018-10-16T03:24:18.990Z,19.40
2018-10-16T03:25:18.965Z,19.50
2018-10-16T03:26:18.932Z,20.00
2018-10-16T03:27:18.903Z,18.20
2018-10-16T03:28:18.876Z,17.50
2018-10-16T03:29:18.844Z,19.20
2018-10-16T03:30:18.826Z,19.30
2018-10-16T03:31:18.785Z,18.50
2018-10-16T03:32:18.759Z,18.70
2018-10-16T03:33:18.729Z,19.60
2018-10-16T03:34:18.699Z,20.40
2018-10-16T03:35:18.669Z,19.40
2018-10-16T03:36:18.645Z,19.30
2018-10-16T03:37:18.613Z,19.00
2018-10-16T03:38:18.584Z,18.40
2018-10-16T03:39:18.553Z,20.20
2018-10-16T03:40:18.524Z,20.50
2018-10-16T03:41:18.496Z,20.60
2018-10-16T03:42:18.472Z,20.50
2018-10-16T03:43:18.437Z,19.00
2018-10-16T03:44:18.407Z,19.10
2018-10-16T03:45:18.379Z,19.90
2018-10-16T03:46:18.349Z,19.10
2018-10-16T03:47:18.319Z,20.50
2018-10-16T03:48:18.293Z,21.00
2018-10-16T03:49:18.262Z,21.50
2018-10-16T03:50:18.235Z,18.50
2018-10-16T03:51:18.202Z,19.60
2018-10-16T03:52:18.175Z,19.20
2018-10-16T03:53:18.145Z,19.00
2018-10-16T03:54:18.116Z,19.20
2018-10-16T03:55:18.085Z,19.30
2018-10-16T03:56:18.060Z,19.30
2018-10-16T03:57:18.120Z,19.60
2018-10-16T03:58:18.000Z,20.10
2018-10-16T03:59:17.968Z,19.70
2018-10-16T04:00:17.940Z,20.10
2018-10-16T04:01:17.910Z,19.30
2018-10-16T04:02:17.883Z,20.90
2018-10-16T04:03:17.853Z,20.10
2018-10-16T04:04:17.823Z,18.30
2018-10-16T04:05:17.795Z,19.00
2018-10-16T04:06:17.764Z,18.50
2018-10-16T04:07:17.737Z,19.80
2018-10-16T04:08:17.706Z,20.70
2018-10-16T04:09:17.676Z,20.00
2018-10-16T04:10:17.648Z,20.60
2018-10-16T04:11:17.618Z,19.60
2018-10-16T04:12:17.597Z,20.40
2018-10-16T04:13:17.560Z,19.30
2018-10-16T04:14:17.534Z,19.20
2018-10-16T04:15:17.501Z,19.30
2018-10-16T04:16:17.475Z,18.70
2018-10-16T04:17:17.444Z,18.30
2018-10-16T04:18:17.413Z,17.40
2018-10-16T04:19:17.375Z,18.80
2018-10-16T04:20:17.347Z,19.50
2018-10-16T04:21:17.316Z,19.80
2018-10-16T04:22:17.341Z,19.80
2018-10-16T04:23:17.256Z,19.90
2018-10-16T04:24:17.229Z,19.70
2018-10-16T04:25:17.200Z,19.80
2018-10-16T04:26:17.171Z,19.90
2018-10-16T04:27:17.141Z,21.90
2018-10-16T04:28:17.110Z,20.50
2018-10-16T04:29:17.170Z,21.90
2018-10-16T04:30:17.053Z,22.00
2018-10-16T04:31:17.022Z,20.80
2018-10-16T04:32:16.994Z,20.60
2018-10-16T04:33:16.964Z,20.10
2018-10-16T04:34:16.936Z,20.70
2018-10-16T04:35:16.906Z,20.60
2018-10-16T04:36:16.875Z,21.90
2018-10-16T04:37:16.847Z,22.20
2018-10-16T04:38:16.818Z,23.00
2018-10-16T04:39:16.790Z,20.80
2018-10-16T04:40:16.759Z,20.20
2018-10-16T04:41:16.730Z,20.20
2018-10-16T04:42:16.701Z,19.90
2018-10-16T04:43:16.671Z,22.20
2018-10-16T04:44:16.645Z,20.80
2018-10-16T04:45:16.612Z,20.70
2018-10-16T04:46:16.583Z,21.10
2018-10-16T04:47:16.552Z,21.70
2018-10-16T04:48:16.524Z,21.10
2018-10-16T04:49:16.495Z,22.50
2018-10-16T04:50:16.468Z,22.70
2018-10-16T04:51:16.436Z,22.80
2018-10-16T04:52:16.406Z,22.90
2018-10-16T04:53:16.377Z,20.50
2018-10-16T04:54:16.348Z,22.40
2018-10-16T04:55:16.382Z,20.70
2018-10-16T04:56:16.289Z,20.50
2018-10-16T04:57:16.261Z,21.00
2018-10-16T04:58:16.231Z,22.10
2018-10-16T04:59:16.202Z,21.70
2018-10-16T05:00:16.173Z,23.80
2018-10-16T05:01:16.143Z,22.70
2018-10-16T05:02:16.114Z,20.50
2018-10-16T05:03:16.085Z,21.10
2018-10-16T05:04:16.189Z,22.30
2018-10-16T05:05:16.027Z,22.40
2018-10-16T05:06:15.997Z,23.50
2018-10-16T05:07:15.967Z,22.40
2018-10-16T05:08:15.938Z,22.60
2018-10-16T05:09:15.908Z,21.70
2018-10-16T05:10:15.879Z,19.90
2018-10-16T05:11:15.849Z,21.10
2018-10-16T05:12:15.818Z,21.60
2018-10-16T05:13:15.850Z,21.50
2018-10-16T05:14:15.764Z,22.60
2018-10-16T05:15:15.730Z,21.10
2018-10-16T05:16:15.703Z,22.40
2018-10-16T05:17:15.672Z,22.40
2018-10-16T05:18:15.643Z,21.60
2018-10-16T05:19:15.765Z,22.60
2018-10-16T05:20:15.583Z,22.70
2018-10-16T05:21:15.554Z,23.20
2018-10-16T05:22:15.525Z,22.20
2018-10-16T05:23:15.494Z,23.40
2018-10-16T05:24:15.467Z,23.20
2018-10-16T05:25:15.436Z,21.20
2018-10-16T05:26:15.407Z,20.50
2018-10-16T05:27:15.378Z,21.60
2018-10-16T05:28:15.347Z,20.80
2018-10-16T05:29:15.319Z,21.40
2018-10-16T05:30:15.289Z,20.60
2018-10-16T05:31:15.359Z,20.70
2018-10-16T05:32:15.231Z,20.60
2018-10-16T05:33:15.199Z,22.70
2018-10-16T05:34:15.171Z,23.00
2018-10-16T05:35:15.140Z,21.30
2018-10-16T05:36:15.111Z,18.90
2018-10-16T05:37:15.081Z,20.30
2018-10-16T05:38:15.053Z,20.70
2018-10-16T05:39:15.084Z,20.70
2018-10-16T05:40:14.992Z,20.50
2018-10-16T05:41:14.964Z,20.10
2018-10-16T05:42:14.934Z,20.80
2018-10-16T05:43:14.907Z,21.80
2018-10-16T05:44:14.876Z,22.10
2018-10-16T05:45:14.845Z,21.70
2018-10-16T05:46:14.818Z,23.30
2018-10-16T05:47:14.788Z,23.40
2018-10-16T05:48:14.760Z,22.40
2018-10-16T05:49:14.728Z,23.60
2018-10-16T05:50:14.700Z,22.50
2018-10-16T05:51:14.670Z,21.70
2018-10-16T05:52:14.641Z,20.60
2018-10-16T05:53:14.616Z,21.00
2018-10-16T05:54:14.600Z,20.10
2018-10-16T05:55:14.553Z,20.60
2018-10-16T05:56:14.521Z,20.10
2018-10-16T05:57:14.491Z,21.80
2018-10-16T05:58:14.464Z,21.50
2018-10-16T05:59:14.432Z,21.10
2018-10-16T06:00:14.402Z,21.80
2018-10-16T06:01:14.379Z,22.00
2018-10-16T06:02:14.345Z,22.50
2018-10-16T06:03:14.316Z,22.30
2018-10-16T06:04:14.287Z,20.80
2018-10-16T06:05:14.256Z,21.90
2018-10-16T06:06:14.229Z,21.40
2018-10-16T06:07:14.197Z,20.80
2018-10-16T06:08:14.169Z,19.90
2018-10-16T06:09:14.138Z,21.00
2018-10-16T06:10:14.111Z,19.10
2018-10-16T06:11:14.082Z,20.00
2018-10-16T06:12:14.080Z,19.30
2018-10-16T06:13:14.022Z,19.90
2018-10-16T06:14:13.992Z,21.10
2018-10-16T06:15:13.961Z,20.90
2018-10-16T06:16:13.933Z,20.20
2018-10-16T06:17:13.904Z,21.40
2018-10-16T06:18:13.876Z,20.30
2018-10-16T06:19:13.845Z,20.00
2018-10-16T06:20:13.816Z,21.60
2018-10-16T06:21:13.790Z,19.40
2018-10-16T06:22:13.761Z,18.80
2018-10-16T06:23:13.728Z,19.80
2018-10-16T06:24:13.813Z,19.70
2018-10-16T06:25:13.672Z,19.30
2018-10-16T06:26:13.690Z,18.70
2018-10-16T06:27:13.612Z,18.10
2018-10-16T06:28:13.582Z,18.40
2018-10-16T06:29:13.555Z,18.90
2018-10-16T06:30:13.567Z,18.10
2018-10-16T06:31:13.502Z,17.90
2018-10-16T06:32:13.467Z,17.70
2018-10-16T06:33:13.521Z,18.30
2018-10-16T06:34:13.409Z,17.10
2018-10-16T06:35:13.379Z,17.70
2018-10-16T06:36:13.351Z,17.50
2018-10-16T06:37:13.323Z,17.10
2018-10-16T06:38:13.294Z,17.10
2018-10-16T06:39:13.265Z,16.20
2018-10-16T06:40:13.237Z,15.90
2018-10-16T06:41:13.313Z,15.90
2018-10-16T06:42:13.179Z,16.90
2018-10-16T06:43:13.153Z,16.00
2018-10-16T06:44:13.125Z,16.40
2018-10-16T06:45:13.095Z,16.90
2018-10-16T06:46:13.067Z,17.40
2018-10-16T06:47:13.108Z,17.10
2018-10-16T06:48:13.157Z,16.20
2018-10-16T06:49:12.981Z,16.80
2018-10-16T06:50:12.953Z,17.10
2018-10-16T06:51:12.924Z,16.60
2018-10-16T06:52:12.895Z,17.50
2018-10-16T06:53:12.926Z,17.40
2018-10-16T06:54:12.840Z,17.90
2018-10-16T06:55:12.878Z,17.30
2018-10-16T06:56:12.782Z,16.10
2018-10-16T06:57:12.755Z,16.30
2018-10-16T06:58:12.728Z,17.40
2018-10-16T06:59:12.698Z,17.20
2018-10-16T07:00:12.679Z,17.40
2018-10-16T07:01:12.643Z,17.00
2018-10-16T07:02:12.618Z,17.50
2018-10-16T07:03:12.586Z,16.70
2018-10-16T07:04:12.563Z,16.70
2018-10-16T07:05:12.531Z,16.60
2018-10-16T07:06:12.504Z,15.30
2018-10-16T07:07:12.613Z,14.10
2018-10-16T07:08:12.448Z,14.70
2018-10-16T07:09:12.422Z,14.30
2018-10-16T07:10:12.394Z,15.10
2018-10-16T07:11:12.366Z,15.60
2018-10-16T07:12:12.338Z,15.00
2018-10-16T07:13:12.312Z,16.60
2018-10-16T07:14:12.285Z,16.90
2018-10-16T07:15:12.257Z,16.20
2018-10-16T07:16:12.230Z,15.90
2018-10-16T07:17:12.201Z,16.80
2018-10-16T07:18:12.175Z,17.30
2018-10-16T07:19:12.145Z,16.30
2018-10-16T07:20:12.120Z,16.40
2018-10-16T07:21:12.111Z,15.80
2018-10-16T07:22:12.067Z,15.20
2018-10-16T07:23:12.088Z,14.90
2018-10-16T07:24:12.012Z,15.50
2018-10-16T07:25:11.985Z,16.10
2018-10-16T07:26:11.959Z,16.50
2018-10-16T07:27:11.942Z,15.90
2018-10-16T07:28:11.905Z,14.90
2018-10-16T07:29:11.878Z,15.60
2018-10-16T07:30:11.915Z,15.70
2018-10-16T07:31:11.825Z,16.00
2018-10-16T07:32:11.798Z,15.60
2018-10-16T07:33:11.771Z,15.90
2018-10-16T07:34:11.746Z,15.00
2018-10-16T07:35:11.724Z,16.10
2018-10-16T07:36:11.694Z,14.90
2018-10-16T07:37:11.684Z,14.50
2018-10-16T07:38:11.768Z,14.70
2018-10-16T07:39:11.640Z,14.00
2018-10-16T07:40:11.596Z,14.30
2018-10-16T07:41:11.567Z,14.20
2018-10-16T07:42:11.544Z,14.00
2018-10-16T07:43:11.518Z,14.50
2018-10-16T07:44:11.497Z,13.80
2018-10-16T07:45:11.470Z,13.90
2018-10-16T07:46:11.446Z,14.00
2018-10-16T07:47:11.422Z,13.30
2018-10-16T07:48:11.400Z,12.00
2018-10-16T07:49:11.377Z,11.60
2018-10-16T07:50:11.353Z,11.60
2018-10-16T07:51:11.360Z,12.00
2018-10-16T07:52:11.306Z,12.10
2018-10-16T07:53:11.286Z,11.70
2018-10-16T07:54:11.264Z,11.80
2018-10-16T07:55:11.245Z,12.30
2018-10-16T07:56:11.221Z,11.70
2018-10-16T07:57:11.258Z,12.00
2018-10-16T07:58:11.176Z,11.60
2018-10-16T07:59:11.153Z,11.00
2018-10-16T08:00:11.130Z,11.10
2018-10-16T08:01:11.110Z,10.90
2018-10-16T08:02:11.089Z,11.00
2018-10-16T08:03:11.090Z,10.60
2018-10-16T08:04:11.045Z,11.80
2018-10-16T08:05:11.025Z,11.00
2018-10-16T08:06:11.004Z,10.90
2018-10-16T08:07:10.984Z,10.80
2018-10-16T08:08:10.963Z,11.10
2018-10-16T08:09:10.946Z,11.00
2018-10-16T08:10:10.925Z,11.50
2018-10-16T08:11:10.932Z,11.00
2018-10-16T08:12:10.881Z,10.50
2018-10-16T08:13:10.862Z,12.50
2018-10-16T08:14:10.842Z,11.90
2018-10-16T08:15:10.824Z,12.30
2018-10-16T08:16:10.802Z,11.80
2018-10-16T08:17:10.860Z,11.90
2018-10-16T08:18:10.762Z,12.30
2018-10-16T08:19:10.742Z,13.80
2018-10-16T08:20:10.735Z,12.90
2018-10-16T08:21:10.703Z,13.70
2018-10-16T08:22:10.682Z,14.50
2018-10-16T08:23:10.667Z,14.50
2018-10-16T08:24:10.649Z,14.80
2018-10-16T08:25:10.623Z,14.60
2018-10-16T08:26:10.610Z,14.50
2018-10-16T08:27:10.586Z,14.30
2018-10-16T08:28:10.565Z,15.20
2018-10-16T08:29:10.547Z,14.60
2018-10-16T08:30:10.640Z,14.00
2018-10-16T08:31:10.508Z,13.10
2018-10-16T08:32:10.492Z,14.30
2018-10-16T08:33:10.470Z,13.80
2018-10-16T08:34:10.491Z,15.50
2018-10-16T08:35:10.435Z,16.10
2018-10-16T08:36:10.440Z,15.40
2018-10-16T08:37:10.505Z,14.80
2018-10-16T08:38:10.375Z,13.80
2018-10-16T08:39:10.356Z,12.90
2018-10-16T08:40:10.339Z,12.60
2018-10-16T08:41:10.320Z,12.70
2018-10-16T08:42:10.306Z,12.80
2018-10-16T08:43:10.281Z,11.00
2018-10-16T08:44:10.265Z,11.70
2018-10-16T08:45:10.400Z,12.00
2018-10-16T08:46:10.230Z,12.10
2018-10-16T08:47:10.209Z,11.50
2018-10-16T08:48:10.190Z,12.20
2018-10-16T08:49:10.173Z,11.10
2018-10-16T08:50:10.155Z,11.90
2018-10-16T08:51:10.135Z,12.70
2018-10-16T08:52:10.120Z,12.10
2018-10-16T08:53:10.100Z,11.10
2018-10-16T08:54:10.082Z,10.90
2018-10-16T08:55:10.148Z,10.90
2018-10-16T08:56:10.044Z,11.10
2018-10-16T08:57:10.028Z,11.50
2018-10-16T08:58:10.014Z,11.20
2018-10-16T08:59:09.992Z,11.40
2018-10-16T09:00:09.973Z,11.60
2018-10-16T09:01:09.957Z,11.00
2018-10-16T09:02:09.938Z,10.70
2018-10-16T09:03:09.924Z,10.90
2018-10-16T09:04:09.902Z,11.20
2018-10-16T09:05:09.886Z,10.90
2018-10-16T09:06:09.869Z,11.20
2018-10-16T09:07:09.850Z,11.30
2018-10-16T09:08:09.832Z,10.60
2018-10-16T09:09:09.816Z,10.30
2018-10-16T09:10:09.799Z,10.50
2018-10-16T09:11:09.782Z,10.70
2018-10-16T09:12:09.763Z,10.60
2018-10-16T09:13:09.808Z,10.10
2018-10-16T09:14:09.783Z,11.80
2018-10-16T09:15:09.711Z,11.80
2018-10-16T09:16:09.696Z,10.70
2018-10-16T09:17:09.676Z,10.50
2018-10-16T09:18:09.658Z,11.10
2018-10-16T09:19:09.641Z,10.90
2018-10-16T09:20:09.624Z,10.70
2018-10-16T09:21:09.605Z,10.80
2018-10-16T09:22:09.590Z,11.50
2018-10-16T09:23:09.573Z,11.20
2018-10-16T09:24:09.556Z,11.70
2018-10-16T09:25:09.612Z,11.00
2018-10-16T09:26:09.521Z,11.10
2018-10-16T09:27:09.505Z,11.00
2018-10-16T09:28:09.489Z,10.80
2018-10-16T09:29:09.475Z,11.10
2018-10-16T09:30:09.455Z,11.30
2018-10-16T09:31:09.508Z,10.80
2018-10-16T09:32:09.421Z,11.40
2018-10-16T09:33:09.405Z,10.40
2018-10-16T09:34:09.393Z,10.10
2018-10-16T09:35:09.373Z,10.70
2018-10-16T09:36:09.356Z,11.40
2018-10-16T09:37:09.340Z,11.90
2018-10-16T09:38:09.373Z,12.90
2018-10-16T09:39:09.306Z,12.70
2018-10-16T09:40:09.291Z,11.20
2018-10-16T09:41:09.273Z,10.30
2018-10-16T09:42:09.259Z,12.00
2018-10-16T09:43:09.240Z,11.90
2018-10-16T09:44:09.226Z,11.50
2018-10-16T09:45:09.211Z,11.20
2018-10-16T09:46:09.195Z,11.50
2018-10-16T09:47:09.178Z,11.50
2018-10-16T09:48:09.163Z,10.20
2018-10-16T09:49:09.145Z,11.60
2018-10-16T09:50:09.132Z,11.10
2018-10-16T09:51:09.120Z,11.20
2018-10-16T09:52:09.099Z,10.80
2018-10-16T09:53:09.083Z,11.60
2018-10-16T09:54:09.067Z,10.50
2018-10-16T09:55:09.054Z,11.30
2018-10-16T09:56:09.035Z,10.90
2018-10-16T09:57:09.019Z,10.30
2018-10-16T09:58:09.005Z,11.00
2018-10-16T09:59:08.987Z,11.40
2018-10-16T10:00:08.973Z,10.90
2018-10-16T10:01:08.957Z,12.10
2018-10-16T10:02:08.944Z,11.40
2018-10-16T10:03:08.927Z,12.00
2018-10-16T10:04:08.912Z,11.00
2018-10-16T10:05:08.897Z,12.00
2018-10-16T10:06:08.884Z,11.70
2018-10-16T10:07:08.865Z,12.20
2018-10-16T10:08:08.849Z,12.90
2018-10-16T10:09:08.835Z,12.90
2018-10-16T10:10:08.819Z,12.80
2018-10-16T10:11:08.923Z,12.50
2018-10-16T10:12:08.788Z,11.40
2018-10-16T10:13:08.773Z,11.70
2018-10-16T10:14:08.758Z,12.40
2018-10-16T10:15:08.745Z,13.40
2018-10-16T10:16:08.727Z,13.00
2018-10-16T10:17:08.711Z,12.40
2018-10-16T10:18:08.696Z,12.30
2018-10-16T10:19:08.680Z,12.70
2018-10-16T10:20:08.665Z,13.00
2018-10-16T10:21:08.647Z,12.90
2018-10-16T10:22:08.636Z,12.90
2018-10-16T10:23:08.665Z,12.80
2018-10-16T10:24:08.602Z,13.90
2018-10-16T10:25:08.653Z,14.30
2018-10-16T10:26:08.572Z,12.50
2018-10-16T10:27:08.556Z,12.20
2018-10-16T10:28:08.542Z,12.30
2018-10-16T10:29:08.525Z,12.30
2018-10-16T10:30:08.510Z,12.40
2018-10-16T10:31:08.493Z,11.70
2018-10-16T10:32:08.478Z,11.90
2018-10-16T10:33:08.462Z,11.70
2018-10-16T10:34:08.447Z,12.70
2018-10-16T10:35:08.430Z,11.50
2018-10-16T10:36:08.416Z,11.90
2018-10-16T10:37:08.401Z,12.00
2018-10-16T10:38:08.384Z,11.90
2018-10-16T10:39:08.367Z,11.50
2018-10-16T10:40:08.351Z,11.90
2018-10-16T10:41:08.336Z,11.50
2018-10-16T10:42:08.376Z,11.80
2018-10-16T10:43:08.306Z,11.90
2018-10-16T10:44:08.290Z,11.90
2018-10-16T10:45:08.274Z,12.00
2018-10-16T10:46:08.261Z,11.10
2018-10-16T10:47:08.245Z,12.00
2018-10-16T10:48:08.230Z,12.00
2018-10-16T10:49:08.219Z,12.50
2018-10-16T10:50:08.306Z,11.40
2018-10-16T10:51:08.475Z,12.10
2018-10-16T10:52:08.168Z,11.40
2018-10-16T10:53:08.156Z,11.40
2018-10-16T10:54:08.141Z,11.60
2018-10-16T10:55:08.122Z,11.20
2018-10-16T10:56:08.107Z,12.00
2018-10-16T10:57:08.363Z,11.10
2018-10-16T10:58:08.077Z,12.30
2018-10-16T10:59:08.062Z,10.90
2018-10-16T11:00:08.047Z,10.70
2018-10-16T11:01:08.032Z,10.70
2018-10-16T11:02:08.017Z,11.30
2018-10-16T11:03:08.092Z,11.00
2018-10-16T11:04:07.986Z,11.60
2018-10-16T11:05:07.977Z,10.60
2018-10-16T11:06:07.956Z,11.60
2018-10-16T11:07:07.940Z,11.20
2018-10-16T11:08:07.929Z,11.00
2018-10-16T11:09:07.934Z,10.40
2018-10-16T11:10:07.897Z,10.90
2018-10-16T11:11:07.881Z,11.10
2018-10-16T11:12:07.865Z,10.60
2018-10-16T11:13:07.850Z,10.30
2018-10-16T11:14:07.835Z,11.60
2018-10-16T11:15:07.874Z,11.00
2018-10-16T11:16:07.806Z,10.30
2018-10-16T11:17:07.791Z,11.70
2018-10-16T11:18:07.776Z,12.00
2018-10-16T11:19:07.760Z,11.00
2018-10-16T11:20:07.745Z,11.30
2018-10-16T11:21:07.861Z,11.60
2018-10-16T11:22:07.714Z,11.90
2018-10-16T11:23:07.700Z,10.80
2018-10-16T11:24:07.685Z,10.80
2018-10-16T11:25:07.721Z,10.90
2018-10-16T11:26:07.654Z,10.80
2018-10-16T11:27:07.660Z,11.60
2018-10-16T11:28:07.623Z,10.10
2018-10-16T11:29:07.607Z,11.30
2018-10-16T11:30:07.626Z,10.80
2018-10-16T11:31:07.577Z,10.90
2018-10-16T11:32:07.563Z,11.20
2018-10-16T11:33:07.595Z,10.30
2018-10-16T11:34:07.532Z,10.50
2018-10-16T11:35:07.517Z,11.20
2018-10-16T11:36:07.506Z,10.80
2018-10-16T11:37:07.599Z,10.90
2018-10-16T11:38:07.472Z,10.30
2018-10-16T11:39:07.508Z,10.30
2018-10-16T11:40:07.440Z,10.80
2018-10-16T11:41:07.428Z,11.30
2018-10-16T11:42:07.410Z,11.50
2018-10-16T11:43:07.395Z,11.00
2018-10-16T11:44:07.384Z,11.40
2018-10-16T11:45:07.399Z,10.60
2018-10-16T11:46:07.352Z,10.70
2018-10-16T11:47:07.335Z,10.00
2018-10-16T11:48:07.321Z,10.60
2018-10-16T11:49:07.307Z,10.80
2018-10-16T11:50:07.337Z,10.70
2018-10-16T11:51:07.276Z,10.10
2018-10-16T11:52:07.274Z,9.80
2018-10-16T11:53:07.244Z,10.00
2018-10-16T11:54:07.230Z,10.60
2018-10-16T11:55:07.214Z,10.00
2018-10-16T11:56:07.314Z,10.60
2018-10-16T11:57:07.185Z,10.90
2018-10-16T11:58:07.170Z,10.70
2018-10-16T11:59:07.158Z,11.00
2018-10-16T12:00:07.140Z,11.10
2018-10-16T12:01:07.128Z,10.30
2018-10-16T12:02:07.123Z,11.20
2018-10-16T12:03:07.091Z,10.70
2018-10-16T12:04:07.082Z,11.00
2018-10-16T12:05:07.064Z,10.90
2018-10-16T12:06:07.076Z,11.30
2018-10-16T12:07:07.139Z,11.10
2018-10-16T12:08:07.084Z,11.60
2018-10-16T12:09:07.000Z,11.00
2018-10-16T12:10:07.002Z,11.60
2018-10-16T12:11:07.020Z,10.60
2018-10-16T12:12:06.955Z,10.40
2018-10-16T12:13:06.972Z,10.20
2018-10-16T12:14:06.995Z,10.60
2018-10-16T12:15:06.910Z,10.70
2018-10-16T12:16:06.893Z,11.00
2018-10-16T12:17:06.880Z,10.80
2018-10-16T12:18:06.867Z,10.00
2018-10-16T12:19:06.909Z,10.90
2018-10-16T12:20:06.914Z,10.00
2018-10-16T12:21:06.823Z,10.60
2018-10-16T12:22:06.803Z,10.20
2018-10-16T12:23:06.788Z,10.50
2018-10-16T12:24:06.793Z,11.00
2018-10-16T12:25:06.769Z,9.70
2018-10-16T12:26:06.744Z,10.60
2018-10-16T12:27:06.792Z,10.60
2018-10-16T12:28:06.712Z,9.80
2018-10-16T12:29:06.779Z,10.30
2018-10-16T12:30:06.682Z,10.30
2018-10-16T12:31:06.686Z,9.80
2018-10-16T12:32:06.660Z,10.60
2018-10-16T12:33:06.687Z,9.90
2018-10-16T12:34:06.623Z,11.30
2018-10-16T12:35:06.607Z,10.60
2018-10-16T12:36:06.592Z,10.90
2018-10-16T12:37:06.628Z,10.50
2018-10-16T12:38:06.564Z,10.20
2018-10-16T12:39:06.552Z,10.60
2018-10-16T12:40:06.597Z,10.20
2018-10-16T12:41:06.558Z,10.20
2018-10-16T12:42:06.521Z,10.40
2018-10-16T12:43:06.556Z,10.40
2018-10-16T12:44:06.474Z,9.50
2018-10-16T12:45:06.505Z,10.70
2018-10-16T12:46:06.454Z,9.90
2018-10-16T12:47:06.483Z,10.60
2018-10-16T12:48:06.432Z,10.10
2018-10-16T12:49:06.397Z,9.30
2018-10-16T12:50:06.395Z,10.10
2018-10-16T12:51:06.389Z,10.50
2018-10-16T12:52:06.351Z,10.90